sensor_id;sensor_type;location;lat;lon;timestamp;temperature;humidity
29353;DHT22;16344;50.364;8.944;2024-02-23T00:01:24;8.50;99.90
29353;DHT22;16344;50.364;8.944;2024-02-23T00:03:50;8.60;99.90
29353;DHT22;16344;50.364;8.944;2024-02-23T00:06:16;8.50;99.90
29353;DHT22;16344;50.364;8.944;2024-02-23T00:08:41;8.50;99.90
29353;DHT22;16344;50.364;8.944;2024-02-23T00:11:07;8.40;99.90
29353;DHT22;16344;50.364;8.944;2024-02-23T00:13:32;8.40;99.90
29353;DHT22;16344;50.364;8.944;2024-02-23T00:15:58;8.40;99.90
29353;DHT22;16344;50.364;8.944;2024-02-23T00:18:25;8.40;99.90
29353;DHT22;16344;50.364;8.944;2024-02-23T00:20:51;8.30;99.90
29353;DHT22;16344;50.364;8.944;2024-02-23T00:23:16;8.30;99.90
29353;DHT22;16344;50.364;8.944;2024-02-23T00:25:41;8.20;99.90
29353;DHT22;16344;50.364;8.944;2024-02-23T00:28:07;8.20;99.90
29353;DHT22;16344;50.364;8.944;2024-02-23T00:30:33;8.30;99.90
29353;DHT22;16344;50.364;8.944;2024-02-23T00:32:58;8.30;99.90
29353;DHT22;16344;50.364;8.944;2024-02-23T00:35:24;8.30;99.90
29353;DHT22;16344;50.364;8.944;2024-02-23T00:37:49;8.30;99.90
29353;DHT22;16344;50.364;8.944;2024-02-23T00:40:15;8.30;99.90
29353;DHT22;16344;50.364;8.944;2024-02-23T00:42:41;8.30;99.90
29353;DHT22;16344;50.364;8.944;2024-02-23T00:45:06;8.20;99.90
29353;DHT22;16344;50.364;8.944;2024-02-23T00:47:32;8.30;99.90
29353;DHT22;16344;50.364;8.944;2024-02-23T00:49:57;8.20;99.90
29353;DHT22;16344;50.364;8.944;2024-02-23T00:52:23;8.20;99.90
29353;DHT22;16344;50.364;8.944;2024-02-23T00:54:50;8.20;99.90
29353;DHT22;16344;50.364;8.944;2024-02-23T00:57:16;8.10;99.90
29353;DHT22;16344;50.364;8.944;2024-02-23T00:59:43;8.10;99.90
29353;DHT22;16344;50.364;8.944;2024-02-23T01:02:09;8.10;99.90
29353;DHT22;16344;50.364;8.944;2024-02-23T01:04:34;8.00;99.90
29353;DHT22;16344;50.364;8.944;2024-02-23T01:07:00;7.90;99.90
29353;DHT22;16344;50.364;8.944;2024-02-23T01:09:25;7.90;99.90
29353;DHT22;16344;50.364;8.944;2024-02-23T01:11:51;7.80;99.90
29353;DHT22;16344;50.364;8.944;2024-02-23T01:14:16;7.80;99.90
29353;DHT22;16344;50.364;8.944;2024-02-23T01:16:41;7.80;99.90
29353;DHT22;16344;50.364;8.944;2024-02-23T01:19:07;7.80;99.90
29353;DHT22;16344;50.364;8.944;2024-02-23T01:21:32;7.70;99.90
29353;DHT22;16344;50.364;8.944;2024-02-23T01:23:58;7.70;99.90
29353;DHT22;16344;50.364;8.944;2024-02-23T01:26:25;7.60;99.90
29353;DHT22;16344;50.364;8.944;2024-02-23T01:28:51;7.60;99.90
29353;DHT22;16344;50.364;8.944;2024-02-23T01:31:16;7.60;99.90
29353;DHT22;16344;50.364;8.944;2024-02-23T01:33:42;7.40;99.90
29353;DHT22;16344;50.364;8.944;2024-02-23T01:36:07;7.40;99.90
29353;DHT22;16344;50.364;8.944;2024-02-23T01:38:33;7.40;99.90
29353;DHT22;16344;50.364;8.944;2024-02-23T01:40:58;7.40;99.90
29353;DHT22;16344;50.364;8.944;2024-02-23T01:43:24;7.40;99.90
29353;DHT22;16344;50.364;8.944;2024-02-23T01:45:49;7.30;99.90
29353;DHT22;16344;50.364;8.944;2024-02-23T01:48:15;7.40;99.90
29353;DHT22;16344;50.364;8.944;2024-02-23T01:50:42;7.40;99.90
29353;DHT22;16344;50.364;8.944;2024-02-23T01:53:07;7.40;99.90
29353;DHT22;16344;50.364;8.944;2024-02-23T01:55:34;7.20;99.90
29353;DHT22;16344;50.364;8.944;2024-02-23T01:58:00;7.20;99.90
29353;DHT22;16344;50.364;8.944;2024-02-23T02:00:26;7.20;99.90
29353;DHT22;16344;50.364;8.944;2024-02-23T02:02:52;7.20;99.90
29353;DHT22;16344;50.364;8.944;2024-02-23T02:05:17;7.10;99.90
29353;DHT22;16344;50.364;8.944;2024-02-23T02:07:43;7.10;99.90
29353;DHT22;16344;50.364;8.944;2024-02-23T02:10:10;7.10;99.90
29353;DHT22;16344;50.364;8.944;2024-02-23T02:12:35;7.00;99.90
29353;DHT22;16344;50.364;8.944;2024-02-23T02:15:01;7.00;99.90
29353;DHT22;16344;50.364;8.944;2024-02-23T02:17:27;7.00;99.90
29353;DHT22;16344;50.364;8.944;2024-02-23T02:19:53;6.90;99.90
29353;DHT22;16344;50.364;8.944;2024-02-23T02:22:18;6.90;99.90
29353;DHT22;16344;50.364;8.944;2024-02-23T02:24:46;6.80;99.90
29353;DHT22;16344;50.364;8.944;2024-02-23T02:27:13;6.80;99.90
29353;DHT22;16344;50.364;8.944;2024-02-23T02:29:39;6.80;99.90
29353;DHT22;16344;50.364;8.944;2024-02-23T02:32:04;6.80;99.90
29353;DHT22;16344;50.364;8.944;2024-02-23T02:34:30;6.80;99.90
29353;DHT22;16344;50.364;8.944;2024-02-23T02:36:55;6.80;99.90
29353;DHT22;16344;50.364;8.944;2024-02-23T02:39:21;6.70;99.90
29353;DHT22;16344;50.364;8.944;2024-02-23T02:41:47;6.50;99.90
29353;DHT22;16344;50.364;8.944;2024-02-23T02:44:13;6.50;99.90
29353;DHT22;16344;50.364;8.944;2024-02-23T02:46:39;6.50;99.90
29353;DHT22;16344;50.364;8.944;2024-02-23T02:49:04;6.50;99.90
29353;DHT22;16344;50.364;8.944;2024-02-23T02:51:30;6.60;91.90
29353;DHT22;16344;50.364;8.944;2024-02-23T02:53:55;6.60;99.90
29353;DHT22;16344;50.364;8.944;2024-02-23T02:56:21;6.50;99.90
29353;DHT22;16344;50.364;8.944;2024-02-23T02:58:46;6.40;99.90
29353;DHT22;16344;50.364;8.944;2024-02-23T03:01:11;6.40;99.90
29353;DHT22;16344;50.364;8.944;2024-02-23T03:03:37;6.40;99.90
29353;DHT22;16344;50.364;8.944;2024-02-23T03:06:02;6.40;99.90
29353;DHT22;16344;50.364;8.944;2024-02-23T03:08:28;6.30;99.90
29353;DHT22;16344;50.364;8.944;2024-02-23T03:10:53;6.40;99.90
29353;DHT22;16344;50.364;8.944;2024-02-23T03:13:19;6.30;99.90
29353;DHT22;16344;50.364;8.944;2024-02-23T03:15:44;6.40;99.90
29353;DHT22;16344;50.364;8.944;2024-02-23T03:18:10;6.40;99.90
29353;DHT22;16344;50.364;8.944;2024-02-23T03:20:35;6.40;99.90
29353;DHT22;16344;50.364;8.944;2024-02-23T03:23:01;6.30;99.90
29353;DHT22;16344;50.364;8.944;2024-02-23T03:25:29;6.30;99.90
29353;DHT22;16344;50.364;8.944;2024-02-23T03:27:54;6.20;99.90
29353;DHT22;16344;50.364;8.944;2024-02-23T03:30:20;6.30;99.90
29353;DHT22;16344;50.364;8.944;2024-02-23T03:32:45;6.20;99.90
29353;DHT22;16344;50.364;8.944;2024-02-23T03:35:12;6.30;99.90
29353;DHT22;16344;50.364;8.944;2024-02-23T03:37:37;6.30;99.90
29353;DHT22;16344;50.364;8.944;2024-02-23T03:40:04;6.20;99.90
29353;DHT22;16344;50.364;8.944;2024-02-23T03:42:30;6.20;99.90
29353;DHT22;16344;50.364;8.944;2024-02-23T03:44:55;6.20;99.90
29353;DHT22;16344;50.364;8.944;2024-02-23T03:47:21;6.30;99.90
29353;DHT22;16344;50.364;8.944;2024-02-23T03:49:46;6.40;99.90
29353;DHT22;16344;50.364;8.944;2024-02-23T03:52:12;6.40;99.90
29353;DHT22;16344;50.364;8.944;2024-02-23T03:54:37;6.40;99.90
29353;DHT22;16344;50.364;8.944;2024-02-23T03:57:03;6.40;99.90
29353;DHT22;16344;50.364;8.944;2024-02-23T03:59:28;6.30;99.90
29353;DHT22;16344;50.364;8.944;2024-02-23T04:01:54;6.30;99.90
29353;DHT22;16344;50.364;8.944;2024-02-23T04:04:20;6.20;99.90
29353;DHT22;16344;50.364;8.944;2024-02-23T04:06:45;6.20;99.90
29353;DHT22;16344;50.364;8.944;2024-02-23T04:09:11;6.20;99.90
29353;DHT22;16344;50.364;8.944;2024-02-23T04:11:36;6.10;99.90
29353;DHT22;16344;50.364;8.944;2024-02-23T04:14:02;6.10;99.90
29353;DHT22;16344;50.364;8.944;2024-02-23T04:16:27;6.10;75.00
29353;DHT22;16344;50.364;8.944;2024-02-23T04:18:53;6.00;95.30
29353;DHT22;16344;50.364;8.944;2024-02-23T04:21:19;6.00;99.90
29353;DHT22;16344;50.364;8.944;2024-02-23T04:23:44;6.00;99.90
29353;DHT22;16344;50.364;8.944;2024-02-23T04:26:10;6.00;99.90
29353;DHT22;16344;50.364;8.944;2024-02-23T04:28:37;6.00;99.90
29353;DHT22;16344;50.364;8.944;2024-02-23T04:31:03;6.00;99.90
29353;DHT22;16344;50.364;8.944;2024-02-23T04:33:29;6.00;99.90
29353;DHT22;16344;50.364;8.944;2024-02-23T04:35:54;6.00;99.90
29353;DHT22;16344;50.364;8.944;2024-02-23T04:38:19;6.00;99.90
29353;DHT22;16344;50.364;8.944;2024-02-23T04:40:45;6.00;99.90
29353;DHT22;16344;50.364;8.944;2024-02-23T04:43:10;6.00;99.90
29353;DHT22;16344;50.364;8.944;2024-02-23T04:45:36;6.10;99.90
29353;DHT22;16344;50.364;8.944;2024-02-23T04:48:01;6.10;99.90
29353;DHT22;16344;50.364;8.944;2024-02-23T04:50:27;6.20;99.90
29353;DHT22;16344;50.364;8.944;2024-02-23T04:52:53;6.20;99.90
29353;DHT22;16344;50.364;8.944;2024-02-23T04:55:18;6.10;99.90
29353;DHT22;16344;50.364;8.944;2024-02-23T04:57:44;6.10;99.90
29353;DHT22;16344;50.364;8.944;2024-02-23T05:00:09;6.10;99.90
29353;DHT22;16344;50.364;8.944;2024-02-23T05:02:35;6.10;99.90
29353;DHT22;16344;50.364;8.944;2024-02-23T05:05:04;6.10;99.90
29353;DHT22;16344;50.364;8.944;2024-02-23T05:07:30;6.10;99.90
29353;DHT22;16344;50.364;8.944;2024-02-23T05:09:56;6.10;99.90
29353;DHT22;16344;50.364;8.944;2024-02-23T05:12:22;6.00;99.90
29353;DHT22;16344;50.364;8.944;2024-02-23T05:14:47;6.00;99.90
29353;DHT22;16344;50.364;8.944;2024-02-23T05:17:12;6.10;99.90
29353;DHT22;16344;50.364;8.944;2024-02-23T05:19:38;6.00;99.90
29353;DHT22;16344;50.364;8.944;2024-02-23T05:22:03;6.10;99.90
29353;DHT22;16344;50.364;8.944;2024-02-23T05:24:29;6.10;99.90
29353;DHT22;16344;50.364;8.944;2024-02-23T05:26:54;6.10;99.90
29353;DHT22;16344;50.364;8.944;2024-02-23T05:29:20;6.10;99.90
29353;DHT22;16344;50.364;8.944;2024-02-23T05:31:56;6.10;99.90
29353;DHT22;16344;50.364;8.944;2024-02-23T05:34:22;6.20;99.90
29353;DHT22;16344;50.364;8.944;2024-02-23T05:36:47;6.20;99.90
29353;DHT22;16344;50.364;8.944;2024-02-23T05:39:13;6.20;99.90
29353;DHT22;16344;50.364;8.944;2024-02-23T05:41:40;6.20;99.90
29353;DHT22;16344;50.364;8.944;2024-02-23T05:44:06;6.20;99.90
29353;DHT22;16344;50.364;8.944;2024-02-23T05:46:33;6.20;99.90
29353;DHT22;16344;50.364;8.944;2024-02-23T05:48:58;6.20;99.90
29353;DHT22;16344;50.364;8.944;2024-02-23T05:51:24;6.20;99.90
29353;DHT22;16344;50.364;8.944;2024-02-23T05:53:49;6.10;99.90
29353;DHT22;16344;50.364;8.944;2024-02-23T05:56:15;6.10;99.90
29353;DHT22;16344;50.364;8.944;2024-02-23T05:58:40;6.10;99.90
29353;DHT22;16344;50.364;8.944;2024-02-23T06:01:06;6.10;99.90
29353;DHT22;16344;50.364;8.944;2024-02-23T06:03:32;6.20;99.90
29353;DHT22;16344;50.364;8.944;2024-02-23T06:05:58;6.20;99.90
29353;DHT22;16344;50.364;8.944;2024-02-23T06:08:23;6.10;1.00
29353;DHT22;16344;50.364;8.944;2024-02-23T06:10:49;6.10;99.90
29353;DHT22;16344;50.364;8.944;2024-02-23T06:13:14;6.10;99.90
29353;DHT22;16344;50.364;8.944;2024-02-23T06:15:39;6.10;1.00
29353;DHT22;16344;50.364;8.944;2024-02-23T06:18:06;6.20;1.00
29353;DHT22;16344;50.364;8.944;2024-02-23T06:20:31;6.10;99.90
29353;DHT22;16344;50.364;8.944;2024-02-23T06:22:57;6.10;99.90
29353;DHT22;16344;50.364;8.944;2024-02-23T06:25:22;6.10;99.90
29353;DHT22;16344;50.364;8.944;2024-02-23T06:27:48;6.00;99.90
29353;DHT22;16344;50.364;8.944;2024-02-23T06:30:13;5.90;99.90
29353;DHT22;16344;50.364;8.944;2024-02-23T06:32:39;5.80;99.90
29353;DHT22;16344;50.364;8.944;2024-02-23T06:35:04;5.70;99.90
29353;DHT22;16344;50.364;8.944;2024-02-23T06:37:32;5.80;99.90
29353;DHT22;16344;50.364;8.944;2024-02-23T06:39:57;5.70;99.90
29353;DHT22;16344;50.364;8.944;2024-02-23T06:42:23;5.70;1.00
29353;DHT22;16344;50.364;8.944;2024-02-23T06:44:49;5.70;1.00
29353;DHT22;16344;50.364;8.944;2024-02-23T06:47:14;5.70;1.00
29353;DHT22;16344;50.364;8.944;2024-02-23T06:49:43;5.70;1.00
29353;DHT22;16344;50.364;8.944;2024-02-23T06:52:09;5.70;1.00
29353;DHT22;16344;50.364;8.944;2024-02-23T06:54:34;5.70;1.00
29353;DHT22;16344;50.364;8.944;2024-02-23T06:57:00;5.70;1.00
29353;DHT22;16344;50.364;8.944;2024-02-23T06:59:25;5.60;1.00
29353;DHT22;16344;50.364;8.944;2024-02-23T07:01:51;5.60;1.00
29353;DHT22;16344;50.364;8.944;2024-02-23T07:04:16;5.60;1.00
29353;DHT22;16344;50.364;8.944;2024-02-23T07:06:42;5.60;1.00
29353;DHT22;16344;50.364;8.944;2024-02-23T07:09:08;5.60;1.00
29353;DHT22;16344;50.364;8.944;2024-02-23T07:11:33;5.70;1.00
29353;DHT22;16344;50.364;8.944;2024-02-23T07:13:59;5.80;1.00
29353;DHT22;16344;50.364;8.944;2024-02-23T07:16:24;5.80;1.00
29353;DHT22;16344;50.364;8.944;2024-02-23T07:18:50;5.80;1.00
29353;DHT22;16344;50.364;8.944;2024-02-23T07:21:18;5.80;1.00
29353;DHT22;16344;50.364;8.944;2024-02-23T07:23:44;5.80;1.00
29353;DHT22;16344;50.364;8.944;2024-02-23T07:26:09;5.90;1.00
29353;DHT22;16344;50.364;8.944;2024-02-23T07:28:35;5.90;1.00
29353;DHT22;16344;50.364;8.944;2024-02-23T07:31:00;5.90;1.00
29353;DHT22;16344;50.364;8.944;2024-02-23T07:33:25;5.90;1.00
29353;DHT22;16344;50.364;8.944;2024-02-23T07:35:51;6.00;1.00
29353;DHT22;16344;50.364;8.944;2024-02-23T07:38:16;6.00;99.90
29353;DHT22;16344;50.364;8.944;2024-02-23T07:40:43;6.10;99.90
29353;DHT22;16344;50.364;8.944;2024-02-23T07:43:09;6.10;99.90
29353;DHT22;16344;50.364;8.944;2024-02-23T07:45:36;6.20;99.90
29353;DHT22;16344;50.364;8.944;2024-02-23T07:48:02;6.10;99.90
29353;DHT22;16344;50.364;8.944;2024-02-23T07:50:27;6.20;99.90
29353;DHT22;16344;50.364;8.944;2024-02-23T07:52:53;6.10;99.90
29353;DHT22;16344;50.364;8.944;2024-02-23T07:55:18;6.10;99.90
29353;DHT22;16344;50.364;8.944;2024-02-23T07:57:44;6.10;99.90
29353;DHT22;16344;50.364;8.944;2024-02-23T08:00:09;6.10;99.90
29353;DHT22;16344;50.364;8.944;2024-02-23T08:02:35;6.10;99.90
29353;DHT22;16344;50.364;8.944;2024-02-23T08:05:01;6.10;99.90
29353;DHT22;16344;50.364;8.944;2024-02-23T08:07:27;6.10;99.90
29353;DHT22;16344;50.364;8.944;2024-02-23T08:09:53;6.10;99.90
29353;DHT22;16344;50.364;8.944;2024-02-23T08:12:19;6.10;99.90
29353;DHT22;16344;50.364;8.944;2024-02-23T08:14:44;6.10;99.90
29353;DHT22;16344;50.364;8.944;2024-02-23T08:17:10;6.20;99.90
29353;DHT22;16344;50.364;8.944;2024-02-23T08:19:36;6.30;99.90
29353;DHT22;16344;50.364;8.944;2024-02-23T08:22:01;6.40;99.90
29353;DHT22;16344;50.364;8.944;2024-02-23T08:24:27;6.60;99.90
29353;DHT22;16344;50.364;8.944;2024-02-23T08:26:53;6.80;99.90
29353;DHT22;16344;50.364;8.944;2024-02-23T08:29:19;6.90;99.90
29353;DHT22;16344;50.364;8.944;2024-02-23T08:31:44;7.20;99.90
29353;DHT22;16344;50.364;8.944;2024-02-23T08:34:10;7.50;79.50
29353;DHT22;16344;50.364;8.944;2024-02-23T08:36:35;7.60;47.10
29353;DHT22;16344;50.364;8.944;2024-02-23T08:39:01;7.60;14.60
29353;DHT22;16344;50.364;8.944;2024-02-23T08:41:26;7.60;1.80
29353;DHT22;16344;50.364;8.944;2024-02-23T08:43:52;7.60;20.00
29353;DHT22;16344;50.364;8.944;2024-02-23T08:46:17;7.60;37.50
29353;DHT22;16344;50.364;8.944;2024-02-23T08:48:44;7.50;17.80
29353;DHT22;16344;50.364;8.944;2024-02-23T08:51:10;7.40;11.00
29353;DHT22;16344;50.364;8.944;2024-02-23T08:53:35;7.50;6.50
29353;DHT22;16344;50.364;8.944;2024-02-23T08:56:01;7.50;12.10
29353;DHT22;16344;50.364;8.944;2024-02-23T08:58:26;7.40;1.00
29353;DHT22;16344;50.364;8.944;2024-02-23T09:00:52;7.40;1.00
29353;DHT22;16344;50.364;8.944;2024-02-23T09:03:17;7.40;1.00
29353;DHT22;16344;50.364;8.944;2024-02-23T09:05:43;7.50;1.00
29353;DHT22;16344;50.364;8.944;2024-02-23T09:08:09;7.60;1.00
29353;DHT22;16344;50.364;8.944;2024-02-23T09:10:35;7.50;1.00
29353;DHT22;16344;50.364;8.944;2024-02-23T09:13:00;7.40;1.00
29353;DHT22;16344;50.364;8.944;2024-02-23T09:15:26;7.40;1.00
29353;DHT22;16344;50.364;8.944;2024-02-23T09:17:52;7.40;1.00
29353;DHT22;16344;50.364;8.944;2024-02-23T09:20:17;7.40;1.00
29353;DHT22;16344;50.364;8.944;2024-02-23T09:22:43;7.40;1.00
29353;DHT22;16344;50.364;8.944;2024-02-23T09:25:08;7.30;1.00
29353;DHT22;16344;50.364;8.944;2024-02-23T09:27:34;7.30;91.50
29353;DHT22;16344;50.364;8.944;2024-02-23T09:30:01;7.20;38.20
29353;DHT22;16344;50.364;8.944;2024-02-23T09:32:27;7.30;16.10
29353;DHT22;16344;50.364;8.944;2024-02-23T09:34:52;7.30;15.60
29353;DHT22;16344;50.364;8.944;2024-02-23T09:37:18;7.30;1.00
29353;DHT22;16344;50.364;8.944;2024-02-23T09:39:43;7.20;2.40
29353;DHT22;16344;50.364;8.944;2024-02-23T09:42:09;7.20;2.40
29353;DHT22;16344;50.364;8.944;2024-02-23T09:44:35;7.30;33.70
29353;DHT22;16344;50.364;8.944;2024-02-23T09:47:02;7.30;18.70
29353;DHT22;16344;50.364;8.944;2024-02-23T09:49:40;7.20;4.50
29353;DHT22;16344;50.364;8.944;2024-02-23T09:52:06;7.20;9.10
29353;DHT22;16344;50.364;8.944;2024-02-23T09:54:32;7.30;18.80
29353;DHT22;16344;50.364;8.944;2024-02-23T09:56:59;7.30;38.40
29353;DHT22;16344;50.364;8.944;2024-02-23T09:59:26;7.30;59.70
29353;DHT22;16344;50.364;8.944;2024-02-23T10:01:53;7.30;99.90
29353;DHT22;16344;50.364;8.944;2024-02-23T10:04:19;7.90;1.00
29353;DHT22;16344;50.364;8.944;2024-02-23T10:06:44;8.50;1.00
29353;DHT22;16344;50.364;8.944;2024-02-23T10:09:10;8.80;1.00
29353;DHT22;16344;50.364;8.944;2024-02-23T10:11:37;9.10;99.90
29353;DHT22;16344;50.364;8.944;2024-02-23T10:14:03;9.40;99.90
29353;DHT22;16344;50.364;8.944;2024-02-23T10:16:29;9.50;99.90
29353;DHT22;16344;50.364;8.944;2024-02-23T10:18:54;9.70;99.90
29353;DHT22;16344;50.364;8.944;2024-02-23T10:21:19;9.80;99.90
29353;DHT22;16344;50.364;8.944;2024-02-23T10:23:45;10.10;99.90
29353;DHT22;16344;50.364;8.944;2024-02-23T10:26:11;10.10;17.30
29353;DHT22;16344;50.364;8.944;2024-02-23T10:28:36;10.00;1.00
29353;DHT22;16344;50.364;8.944;2024-02-23T10:31:04;9.70;1.00
29353;DHT22;16344;50.364;8.944;2024-02-23T10:33:29;9.50;1.00
29353;DHT22;16344;50.364;8.944;2024-02-23T10:35:56;9.40;1.00
29353;DHT22;16344;50.364;8.944;2024-02-23T10:38:26;9.30;1.00
29353;DHT22;16344;50.364;8.944;2024-02-23T10:40:51;9.20;1.00
29353;DHT22;16344;50.364;8.944;2024-02-23T10:43:20;9.40;1.00
29353;DHT22;16344;50.364;8.944;2024-02-23T10:45:49;9.40;1.00
29353;DHT22;16344;50.364;8.944;2024-02-23T10:48:15;9.60;1.00
29353;DHT22;16344;50.364;8.944;2024-02-23T10:50:41;9.80;57.30
29353;DHT22;16344;50.364;8.944;2024-02-23T10:53:09;9.90;1.00
29353;DHT22;16344;50.364;8.944;2024-02-23T10:55:36;9.80;1.00
29353;DHT22;16344;50.364;8.944;2024-02-23T10:58:02;9.80;1.00
29353;DHT22;16344;50.364;8.944;2024-02-23T11:00:28;9.90;1.00
29353;DHT22;16344;50.364;8.944;2024-02-23T11:02:54;10.10;6.00
29353;DHT22;16344;50.364;8.944;2024-02-23T11:05:20;10.20;39.90
29353;DHT22;16344;50.364;8.944;2024-02-23T11:07:46;10.00;1.00
29353;DHT22;16344;50.364;8.944;2024-02-23T11:10:14;10.10;1.00
29353;DHT22;16344;50.364;8.944;2024-02-23T11:12:40;10.20;1.00
29353;DHT22;16344;50.364;8.944;2024-02-23T11:15:06;10.00;1.00
29353;DHT22;16344;50.364;8.944;2024-02-23T11:17:32;10.10;1.00
29353;DHT22;16344;50.364;8.944;2024-02-23T11:19:58;10.30;1.00
29353;DHT22;16344;50.364;8.944;2024-02-23T11:22:24;10.30;1.00
29353;DHT22;16344;50.364;8.944;2024-02-23T11:24:50;10.40;1.00
29353;DHT22;16344;50.364;8.944;2024-02-23T11:27:16;10.70;1.00
29353;DHT22;16344;50.364;8.944;2024-02-23T11:29:47;10.60;1.00
29353;DHT22;16344;50.364;8.944;2024-02-23T11:32:16;10.50;1.00
29353;DHT22;16344;50.364;8.944;2024-02-23T11:34:53;10.40;1.00
29353;DHT22;16344;50.364;8.944;2024-02-23T11:37:19;10.30;1.00
29353;DHT22;16344;50.364;8.944;2024-02-23T11:39:44;9.80;1.00
29353;DHT22;16344;50.364;8.944;2024-02-23T11:42:10;9.80;1.00
29353;DHT22;16344;50.364;8.944;2024-02-23T11:44:36;9.60;1.00
29353;DHT22;16344;50.364;8.944;2024-02-23T11:47:01;9.30;1.00
29353;DHT22;16344;50.364;8.944;2024-02-23T11:49:30;9.00;1.00
29353;DHT22;16344;50.364;8.944;2024-02-23T11:51:55;8.90;1.00
29353;DHT22;16344;50.364;8.944;2024-02-23T11:54:21;8.70;1.00
29353;DHT22;16344;50.364;8.944;2024-02-23T11:56:47;8.60;1.00
29353;DHT22;16344;50.364;8.944;2024-02-23T11:59:15;8.60;1.00
29353;DHT22;16344;50.364;8.944;2024-02-23T12:01:40;8.50;1.00
29353;DHT22;16344;50.364;8.944;2024-02-23T12:04:06;8.50;1.00
29353;DHT22;16344;50.364;8.944;2024-02-23T12:06:32;8.50;1.00
29353;DHT22;16344;50.364;8.944;2024-02-23T12:08:58;8.60;1.00
29353;DHT22;16344;50.364;8.944;2024-02-23T12:11:24;8.80;1.00
29353;DHT22;16344;50.364;8.944;2024-02-23T12:13:50;8.90;1.00
29353;DHT22;16344;50.364;8.944;2024-02-23T12:16:16;8.80;1.00
29353;DHT22;16344;50.364;8.944;2024-02-23T12:18:42;8.80;1.00
29353;DHT22;16344;50.364;8.944;2024-02-23T12:21:07;8.90;1.00
29353;DHT22;16344;50.364;8.944;2024-02-23T12:23:43;9.00;1.00
29353;DHT22;16344;50.364;8.944;2024-02-23T12:26:08;9.10;1.00
29353;DHT22;16344;50.364;8.944;2024-02-23T12:28:34;9.10;1.00
29353;DHT22;16344;50.364;8.944;2024-02-23T12:31:00;9.10;1.00
29353;DHT22;16344;50.364;8.944;2024-02-23T12:33:32;9.10;1.00
29353;DHT22;16344;50.364;8.944;2024-02-23T12:35:58;8.80;1.00
29353;DHT22;16344;50.364;8.944;2024-02-23T12:38:24;8.80;1.00
29353;DHT22;16344;50.364;8.944;2024-02-23T12:40:50;8.70;1.00
29353;DHT22;16344;50.364;8.944;2024-02-23T12:43:15;8.60;1.00
29353;DHT22;16344;50.364;8.944;2024-02-23T12:45:41;8.50;22.30
29353;DHT22;16344;50.364;8.944;2024-02-23T12:48:06;8.50;85.30
29353;DHT22;16344;50.364;8.944;2024-02-23T12:50:32;8.50;99.90
29353;DHT22;16344;50.364;8.944;2024-02-23T12:52:57;8.70;99.90
29353;DHT22;16344;50.364;8.944;2024-02-23T12:55:23;8.80;99.90
29353;DHT22;16344;50.364;8.944;2024-02-23T12:57:48;8.90;99.90
29353;DHT22;16344;50.364;8.944;2024-02-23T13:00:14;9.00;85.40
29353;DHT22;16344;50.364;8.944;2024-02-23T13:02:39;8.90;99.90
29353;DHT22;16344;50.364;8.944;2024-02-23T13:05:05;8.90;99.90
29353;DHT22;16344;50.364;8.944;2024-02-23T13:07:30;9.00;50.70
29353;DHT22;16344;50.364;8.944;2024-02-23T13:09:56;9.10;32.10
29353;DHT22;16344;50.364;8.944;2024-02-23T13:12:21;9.30;3.10
29353;DHT22;16344;50.364;8.944;2024-02-23T13:14:47;9.30;1.00
29353;DHT22;16344;50.364;8.944;2024-02-23T13:17:12;9.30;1.00
29353;DHT22;16344;50.364;8.944;2024-02-23T13:19:37;9.30;1.00
29353;DHT22;16344;50.364;8.944;2024-02-23T13:22:03;9.20;1.00
29353;DHT22;16344;50.364;8.944;2024-02-23T13:24:28;9.30;1.00
29353;DHT22;16344;50.364;8.944;2024-02-23T13:26:54;9.50;1.00
29353;DHT22;16344;50.364;8.944;2024-02-23T13:29:19;9.80;1.00
29353;DHT22;16344;50.364;8.944;2024-02-23T13:31:45;10.00;1.00
29353;DHT22;16344;50.364;8.944;2024-02-23T13:34:11;9.90;1.00
29353;DHT22;16344;50.364;8.944;2024-02-23T13:36:37;9.90;1.00
29353;DHT22;16344;50.364;8.944;2024-02-23T13:39:04;9.90;1.00
29353;DHT22;16344;50.364;8.944;2024-02-23T13:41:29;9.90;1.00
29353;DHT22;16344;50.364;8.944;2024-02-23T13:43:55;9.80;1.00
29353;DHT22;16344;50.364;8.944;2024-02-23T13:46:20;9.70;1.00
29353;DHT22;16344;50.364;8.944;2024-02-23T13:48:46;9.50;1.00
29353;DHT22;16344;50.364;8.944;2024-02-23T13:51:11;9.40;1.00
29353;DHT22;16344;50.364;8.944;2024-02-23T13:53:36;9.20;1.00
29353;DHT22;16344;50.364;8.944;2024-02-23T13:56:02;9.10;1.00
29353;DHT22;16344;50.364;8.944;2024-02-23T13:58:28;9.00;1.00
29353;DHT22;16344;50.364;8.944;2024-02-23T14:00:54;8.90;99.90
29353;DHT22;16344;50.364;8.944;2024-02-23T14:03:19;8.80;99.90
29353;DHT22;16344;50.364;8.944;2024-02-23T14:05:45;8.60;99.90
29353;DHT22;16344;50.364;8.944;2024-02-23T14:08:12;8.60;99.90
29353;DHT22;16344;50.364;8.944;2024-02-23T14:10:37;8.70;99.90
29353;DHT22;16344;50.364;8.944;2024-02-23T14:13:03;8.70;99.90
29353;DHT22;16344;50.364;8.944;2024-02-23T14:15:29;8.60;99.90
29353;DHT22;16344;50.364;8.944;2024-02-23T14:17:54;8.60;99.90
29353;DHT22;16344;50.364;8.944;2024-02-23T14:20:19;8.60;99.90
29353;DHT22;16344;50.364;8.944;2024-02-23T14:22:45;8.50;99.90
29353;DHT22;16344;50.364;8.944;2024-02-23T14:25:10;8.40;99.90
29353;DHT22;16344;50.364;8.944;2024-02-23T14:27:36;8.40;99.90
29353;DHT22;16344;50.364;8.944;2024-02-23T14:30:01;8.40;99.90
29353;DHT22;16344;50.364;8.944;2024-02-23T14:32:27;8.40;99.90
29353;DHT22;16344;50.364;8.944;2024-02-23T14:34:52;8.60;99.90
29353;DHT22;16344;50.364;8.944;2024-02-23T14:37:18;8.60;99.90
29353;DHT22;16344;50.364;8.944;2024-02-23T14:39:43;8.50;99.90
29353;DHT22;16344;50.364;8.944;2024-02-23T14:42:09;8.50;99.90
29353;DHT22;16344;50.364;8.944;2024-02-23T14:44:37;8.30;99.90
29353;DHT22;16344;50.364;8.944;2024-02-23T14:47:03;8.30;99.90
29353;DHT22;16344;50.364;8.944;2024-02-23T14:49:30;8.40;99.90
29353;DHT22;16344;50.364;8.944;2024-02-23T14:51:56;8.40;99.90
29353;DHT22;16344;50.364;8.944;2024-02-23T14:54:22;8.40;99.90
29353;DHT22;16344;50.364;8.944;2024-02-23T14:56:48;8.50;99.90
29353;DHT22;16344;50.364;8.944;2024-02-23T14:59:13;8.60;99.90
29353;DHT22;16344;50.364;8.944;2024-02-23T15:01:39;8.70;99.90
29353;DHT22;16344;50.364;8.944;2024-02-23T15:04:08;8.70;99.90
29353;DHT22;16344;50.364;8.944;2024-02-23T15:06:33;8.70;99.90
29353;DHT22;16344;50.364;8.944;2024-02-23T15:08:59;8.70;99.90
29353;DHT22;16344;50.364;8.944;2024-02-23T15:11:25;8.70;99.90
29353;DHT22;16344;50.364;8.944;2024-02-23T15:13:52;8.80;99.90
29353;DHT22;16344;50.364;8.944;2024-02-23T15:16:24;8.90;99.90
29353;DHT22;16344;50.364;8.944;2024-02-23T15:18:49;8.90;99.90
29353;DHT22;16344;50.364;8.944;2024-02-23T15:21:15;8.90;99.90
29353;DHT22;16344;50.364;8.944;2024-02-23T15:23:43;8.90;99.90
29353;DHT22;16344;50.364;8.944;2024-02-23T15:26:08;8.90;99.90
29353;DHT22;16344;50.364;8.944;2024-02-23T15:28:34;9.00;99.90
29353;DHT22;16344;50.364;8.944;2024-02-23T15:31:00;9.10;99.90
29353;DHT22;16344;50.364;8.944;2024-02-23T15:33:27;9.20;99.90
29353;DHT22;16344;50.364;8.944;2024-02-23T15:35:53;9.40;99.90
29353;DHT22;16344;50.364;8.944;2024-02-23T15:38:18;9.50;99.90
29353;DHT22;16344;50.364;8.944;2024-02-23T15:40:44;9.50;99.90